Terminal Aerodrome Forecast
Issued by NWS

Home | Current Version | Previous Version | Text Only | Print | Product List | Glossary On
Versions: 1 2 3 4 5 6 7 8 9 10 11 12 13 14 15 16 17 18 19 20 21 22 23 24 25 26 27 28 29 30 31 32 33 34 35 36 37 38 39 40 41
000
FTUS46 KEKA 221745
TAFACV
TAF
KACV 221745Z 2218/2318 31008KT P6SM BKN004
     FM222100 31008KT P6SM SCT007
     FM230100 30007KT 6SM BR BKN010
     FM230400 20007KT 6SM BR OVC007
     FM230700 16005KT 4SM BR OVC004
     FM231200 VRB03KT 2SM BR OVC002=

USA.gov is the U.S. government's official web portal to all federal, state and local government web resources and services.